createdAt,value
2018-10-18T00:01:23.229Z,48.77
2018-10-18T00:03:51.908Z,54.73
2018-10-18T00:06:20.616Z,49.13
2018-10-18T00:08:49.305Z,60.58
2018-10-18T00:11:18.027Z,55.43
2018-10-18T00:13:46.703Z,53.57
2018-10-18T00:16:15.395Z,53.85
2018-10-18T00:18:44.077Z,50.03
2018-10-18T00:21:12.763Z,43.80
2018-10-18T00:23:41.448Z,48.63
2018-10-18T00:26:10.220Z,41.60
2018-10-18T00:28:38.819Z,47.93
2018-10-18T00:31:07.499Z,43.03
2018-10-18T00:33:36.183Z,43.60
2018-10-18T00:36:05.324Z,45.77
2018-10-18T00:38:33.935Z,38.45
2018-10-18T00:41:02.624Z,43.53
2018-10-18T00:43:31.309Z,50.00
2018-10-18T00:46:00.028Z,44.80
2018-10-18T00:48:28.699Z,48.27
2018-10-18T00:50:57.376Z,49.60
2018-10-18T00:53:26.080Z,45.63
2018-10-18T00:55:54.805Z,42.93
2018-10-18T00:58:24.188Z,46.48
2018-10-18T01:00:52.881Z,44.53
2018-10-18T01:03:21.580Z,50.80
2018-10-18T01:05:50.264Z,51.13
2018-10-18T01:08:18.959Z,40.03
2018-10-18T01:10:47.727Z,54.37
2018-10-18T01:13:16.412Z,47.78
2018-10-18T01:15:45.191Z,49.55
2018-10-18T01:18:13.957Z,45.40
2018-10-18T01:20:42.567Z,52.97
2018-10-18T01:23:11.251Z,53.77
2018-10-18T01:25:39.928Z,54.73
2018-10-18T01:28:08.619Z,58.03
2018-10-18T01:30:37.335Z,69.80
2018-10-18T01:33:06.141Z,64.17
2018-10-18T01:35:34.819Z,57.90
2018-10-18T01:38:03.537Z,58.23
2018-10-18T01:40:32.176Z,65.03
2018-10-18T01:43:00.859Z,69.67
2018-10-18T01:45:29.543Z,61.47
2018-10-18T01:47:58.242Z,66.87
2018-10-18T01:50:26.912Z,66.87
2018-10-18T01:52:55.595Z,53.00
2018-10-18T01:55:24.273Z,54.13
2018-10-18T01:57:52.957Z,57.93
2018-10-18T02:00:22.431Z,63.83
2018-10-18T02:02:51.115Z,54.70
2018-10-18T02:05:19.789Z,57.47
2018-10-18T02:07:48.468Z,60.17
2018-10-18T02:10:17.135Z,63.13
2018-10-18T02:12:45.816Z,59.23
2018-10-18T02:15:14.499Z,59.93
2018-10-18T02:17:43.164Z,66.63
2018-10-18T02:20:11.842Z,56.03
2018-10-18T02:22:41.095Z,64.50
2018-10-18T02:25:09.818Z,67.10
2018-10-18T02:27:39.180Z,54.63
2018-10-18T02:30:07.901Z,58.63
2018-10-18T02:32:36.555Z,55.03
2018-10-18T02:35:06.042Z,58.10
2018-10-18T02:37:34.724Z,48.07
2018-10-18T02:40:03.391Z,61.43
2018-10-18T02:42:32.074Z,61.67
2018-10-18T02:45:00.775Z,53.17
2018-10-18T02:47:29.456Z,54.77
2018-10-18T02:49:58.136Z,56.10
2018-10-18T02:52:26.824Z,54.40
2018-10-18T02:54:55.503Z,60.53
2018-10-18T02:57:24.231Z,54.80
2018-10-18T02:59:52.927Z,68.17
2018-10-18T03:02:21.612Z,50.97
2018-10-18T03:04:50.287Z,56.20
2018-10-18T03:07:18.967Z,58.50
2018-10-18T03:09:47.647Z,63.60
2018-10-18T03:12:16.339Z,58.40
2018-10-18T03:14:45.028Z,55.98
2018-10-18T03:17:13.712Z,57.33
2018-10-18T03:19:42.390Z,58.13
2018-10-18T03:22:11.080Z,49.03
2018-10-18T03:24:39.772Z,51.13
2018-10-18T03:27:08.442Z,57.80
2018-10-18T03:29:37.144Z,52.97
2018-10-18T03:32:05.823Z,66.67
2018-10-18T03:34:34.511Z,66.40
2018-10-18T03:37:03.192Z,52.70
2018-10-18T03:39:31.879Z,59.80
2018-10-18T03:42:00.609Z,56.17
2018-10-18T03:44:29.259Z,60.63
2018-10-18T03:46:57.948Z,59.63
2018-10-18T03:49:26.640Z,62.93
2018-10-18T03:51:55.307Z,57.43
2018-10-18T03:54:24.039Z,59.93
2018-10-18T03:56:52.760Z,58.30
2018-10-18T03:59:21.446Z,50.30
2018-10-18T04:01:50.122Z,49.70
2018-10-18T04:04:18.795Z,48.70
2018-10-18T04:06:47.479Z,52.37
2018-10-18T04:09:16.163Z,49.73
2018-10-18T04:11:44.836Z,50.67
2018-10-18T04:14:13.512Z,63.23
2018-10-18T04:16:42.186Z,64.97
2018-10-18T04:19:10.867Z,73.73
2018-10-18T04:21:39.539Z,77.00
2018-10-18T04:24:08.270Z,63.27
2018-10-18T04:26:36.913Z,60.30
2018-10-18T04:29:05.616Z,61.33
2018-10-18T04:31:34.283Z,67.00
2018-10-18T04:34:02.971Z,60.93
2018-10-18T04:36:31.662Z,72.17
2018-10-18T04:39:00.362Z,79.27
2018-10-18T04:41:29.486Z,62.83
2018-10-18T04:43:58.171Z,72.85
2018-10-18T04:46:26.856Z,71.15
2018-10-18T04:48:55.592Z,70.63
2018-10-18T04:51:24.219Z,60.08
2018-10-18T04:53:52.907Z,75.65
2018-10-18T04:56:21.582Z,65.27
2018-10-18T04:58:50.268Z,83.87
2018-10-18T05:01:18.992Z,75.63
2018-10-18T05:03:47.623Z,62.47
2018-10-18T05:06:16.304Z,71.17
2018-10-18T05:08:44.992Z,70.03
2018-10-18T05:11:13.705Z,65.33
2018-10-18T05:13:42.357Z,72.97
2018-10-18T05:16:11.035Z,65.67
2018-10-18T05:18:39.724Z,63.13
2018-10-18T05:21:08.391Z,72.93
2018-10-18T05:23:37.123Z,80.65
2018-10-18T05:26:06.283Z,73.53
2018-10-18T05:28:35.008Z,71.90
2018-10-18T05:31:03.746Z,81.50
2018-10-18T05:33:33.199Z,73.40
2018-10-18T05:36:01.887Z,83.60
2018-10-18T05:38:30.572Z,83.50
2018-10-18T05:40:59.244Z,83.33
2018-10-18T05:43:27.931Z,76.37
2018-10-18T05:45:56.716Z,75.23
2018-10-18T05:48:25.436Z,76.12
2018-10-18T05:50:54.175Z,75.55
2018-10-18T05:53:22.883Z,81.50
2018-10-18T05:55:51.543Z,64.95
2018-10-18T05:58:20.230Z,80.00
2018-10-18T06:00:48.920Z,77.30
2018-10-18T06:03:17.603Z,82.93
2018-10-18T06:05:46.292Z,69.82
2018-10-18T06:08:14.970Z,71.63
2018-10-18T06:10:55.184Z,77.03
2018-10-18T06:13:23.872Z,60.20
2018-10-18T06:15:52.564Z,68.43
2018-10-18T06:18:21.250Z,64.15
2018-10-18T06:20:49.944Z,73.67
2018-10-18T06:23:18.685Z,72.63
2018-10-18T06:25:47.320Z,59.90
2018-10-18T06:28:16.005Z,64.63
2018-10-18T06:30:44.690Z,71.97
2018-10-18T06:33:13.442Z,67.00
2018-10-18T06:35:42.100Z,73.92
2018-10-18T06:38:10.777Z,71.63
2018-10-18T06:40:39.472Z,87.77
2018-10-18T06:43:08.187Z,58.70
2018-10-18T06:45:36.861Z,63.13
2018-10-18T06:48:06.207Z,61.03
2018-10-18T06:50:34.855Z,61.37
2018-10-18T06:53:03.563Z,57.87
2018-10-18T06:55:32.227Z,56.73
2018-10-18T06:58:01.420Z,53.03
2018-10-18T07:00:31.161Z,58.13
2018-10-18T07:02:59.826Z,61.80
2018-10-18T07:05:28.535Z,59.70
2018-10-18T07:07:57.224Z,62.83
2018-10-18T07:10:25.908Z,66.25
2018-10-18T07:12:54.592Z,59.20
2018-10-18T07:15:24.188Z,60.37
2018-10-18T07:17:52.877Z,66.40
2018-10-18T07:20:21.577Z,57.03
2018-10-18T07:22:50.255Z,65.97
2018-10-18T07:25:18.978Z,71.37
2018-10-18T07:27:47.634Z,69.07
2018-10-18T07:30:16.407Z,70.35
2018-10-18T07:32:45.084Z,72.57
2018-10-18T07:35:14.492Z,73.47
2018-10-18T07:37:43.108Z,82.33
2018-10-18T07:40:14.347Z,78.70
2018-10-18T07:42:43.066Z,84.60
2018-10-18T07:45:12.843Z,82.33
2018-10-18T07:47:42.236Z,80.30
2018-10-18T07:50:11.444Z,87.67
2018-10-18T07:52:40.124Z,75.60
2018-10-18T07:55:09.630Z,85.73
2018-10-18T07:57:38.335Z,88.17
2018-10-18T08:00:09.737Z,114.73
2018-10-18T08:02:39.367Z,102.90
2018-10-18T08:05:08.671Z,102.50
2018-10-18T08:07:37.547Z,91.30
2018-10-18T08:10:08.465Z,101.87
2018-10-18T08:12:37.133Z,103.02
2018-10-18T08:15:07.127Z,113.37
2018-10-18T08:17:35.811Z,112.10
2018-10-18T08:20:04.508Z,102.33
2018-10-18T08:22:33.276Z,98.53
2018-10-18T08:25:01.934Z,106.43
2018-10-18T08:27:30.559Z,99.87
2018-10-18T08:29:59.327Z,98.60
2018-10-18T08:32:28.044Z,101.72
2018-10-18T08:34:56.761Z,104.57
2018-10-18T08:37:25.989Z,99.17
2018-10-18T08:39:55.375Z,93.33
2018-10-18T08:42:28.124Z,91.40
2018-10-18T08:44:57.158Z,89.47
2018-10-18T08:47:25.512Z,86.00
2018-10-18T08:49:54.255Z,88.05
2018-10-18T08:52:22.907Z,84.87
2018-10-18T08:54:51.651Z,93.40
2018-10-18T08:57:20.331Z,84.77
2018-10-18T08:59:49.019Z,86.17
2018-10-18T09:02:17.719Z,79.93
2018-10-18T09:04:46.615Z,83.10
2018-10-18T09:07:15.377Z,85.10
2018-10-18T09:09:43.991Z,93.60
2018-10-18T09:12:12.683Z,89.37
2018-10-18T09:14:41.387Z,85.22
2018-10-18T09:17:10.074Z,87.30
2018-10-18T09:19:38.760Z,81.57
2018-10-18T09:22:07.499Z,84.97
2018-10-18T09:24:36.215Z,92.93
2018-10-18T09:27:04.940Z,79.20
2018-10-18T09:29:33.687Z,90.30
2018-10-18T09:32:02.396Z,83.53
2018-10-18T09:34:31.076Z,81.17
2018-10-18T09:36:59.786Z,79.53
2018-10-18T09:39:28.576Z,87.60
2018-10-18T09:41:57.268Z,88.60
2018-10-18T09:44:26.068Z,96.00
2018-10-18T09:46:54.659Z,91.60
2018-10-18T09:49:23.343Z,91.43
2018-10-18T09:51:52.035Z,81.63
2018-10-18T09:54:20.724Z,84.70
2018-10-18T09:56:49.416Z,90.73
2018-10-18T09:59:18.095Z,89.73
2018-10-18T10:01:51.988Z,88.80
2018-10-18T10:04:20.732Z,92.27
2018-10-18T10:06:49.373Z,84.37
2018-10-18T10:09:18.051Z,86.53
2018-10-18T10:11:46.820Z,84.83
2018-10-18T10:14:15.427Z,84.40
2018-10-18T10:16:44.115Z,92.95
2018-10-18T10:19:12.849Z,99.93
2018-10-18T10:21:41.527Z,99.07
2018-10-18T10:24:10.207Z,89.32
2018-10-18T10:26:38.900Z,85.87
2018-10-18T10:29:07.627Z,87.23
2018-10-18T10:31:36.324Z,102.93
2018-10-18T10:34:05.020Z,93.37
2018-10-18T10:36:33.713Z,89.03
2018-10-18T10:39:02.446Z,99.60
2018-10-18T10:41:31.120Z,91.50
2018-10-18T10:43:59.864Z,90.33
2018-10-18T10:46:28.508Z,94.83
2018-10-18T10:48:57.252Z,90.83
2018-10-18T10:51:25.903Z,84.97
2018-10-18T10:53:54.648Z,84.70
2018-10-18T10:56:23.311Z,83.53
2018-10-18T10:58:52.021Z,78.27
2018-10-18T11:01:22.682Z,78.90
2018-10-18T11:03:52.795Z,77.70
2018-10-18T11:06:21.587Z,72.70
2018-10-18T11:08:50.287Z,82.80
2018-10-18T11:11:19.480Z,77.03
2018-10-18T11:13:48.364Z,84.77
2018-10-18T11:16:17.051Z,85.10
2018-10-18T11:18:45.727Z,80.03
2018-10-18T11:21:15.856Z,84.80
2018-10-18T11:23:45.218Z,79.57
2018-10-18T11:26:14.023Z,70.07
2018-10-18T11:28:42.613Z,66.12
2018-10-18T11:31:11.306Z,75.40
2018-10-18T11:33:39.992Z,77.87
2018-10-18T11:36:08.788Z,66.33
2018-10-18T11:38:37.432Z,81.90
2018-10-18T11:41:06.145Z,76.33
2018-10-18T11:43:34.841Z,76.90
2018-10-18T11:46:03.549Z,77.03
2018-10-18T11:48:32.362Z,79.13
2018-10-18T11:51:01.228Z,73.10
2018-10-18T11:53:29.917Z,72.30
2018-10-18T11:55:58.689Z,79.17
2018-10-18T11:58:27.366Z,75.90
2018-10-18T12:00:56.048Z,74.87
2018-10-18T12:03:24.749Z,70.37
2018-10-18T12:05:53.445Z,66.70
2018-10-18T12:08:22.136Z,74.07
2018-10-18T12:10:50.838Z,66.60
2018-10-18T12:13:19.529Z,62.63
2018-10-18T12:15:48.289Z,67.50
2018-10-18T12:18:16.989Z,61.47
2018-10-18T12:20:45.682Z,65.90
2018-10-18T12:23:14.472Z,57.03
2018-10-18T12:25:43.106Z,59.20
2018-10-18T12:28:11.805Z,52.27
2018-10-18T12:30:40.496Z,57.43
2018-10-18T12:33:09.324Z,57.85
2018-10-18T12:35:38.022Z,63.83
2018-10-18T12:38:06.811Z,64.97
2018-10-18T12:40:35.555Z,68.50
2018-10-18T12:43:04.137Z,72.30
2018-10-18T12:45:32.845Z,64.03
2018-10-18T12:48:01.598Z,71.00
2018-10-18T12:50:30.272Z,73.87
2018-10-18T12:52:58.981Z,82.10
2018-10-18T12:55:27.681Z,77.13
2018-10-18T12:57:56.420Z,72.00
2018-10-18T13:00:25.121Z,77.10
2018-10-18T13:02:53.861Z,68.73
2018-10-18T13:05:22.569Z,75.23
2018-10-18T13:07:51.293Z,77.33
2018-10-18T13:10:20.013Z,83.43
2018-10-18T13:12:48.732Z,78.13
2018-10-18T13:15:17.419Z,73.97
2018-10-18T13:17:46.121Z,83.47
2018-10-18T13:20:14.881Z,76.47
2018-10-18T13:22:43.533Z,74.20
2018-10-18T13:25:12.276Z,86.77
2018-10-18T13:27:40.933Z,72.13
2018-10-18T13:30:10.565Z,70.83
2018-10-18T13:32:39.849Z,78.47
2018-10-18T13:35:08.926Z,71.90
2018-10-18T13:37:37.629Z,82.50
2018-10-18T13:40:07.309Z,80.00
2018-10-18T13:42:36.009Z,82.90
2018-10-18T13:45:05.341Z,80.87
2018-10-18T13:47:34.073Z,72.75
2018-10-18T13:50:03.075Z,85.27
2018-10-18T13:52:31.725Z,78.60
2018-10-18T13:55:00.429Z,84.10
2018-10-18T13:57:29.149Z,83.60
2018-10-18T14:00:23.806Z,84.27
2018-10-18T14:02:53.250Z,82.13
2018-10-18T14:05:22.273Z,89.20
2018-10-18T14:07:51.991Z,87.33
2018-10-18T14:10:20.661Z,93.45
2018-10-18T14:12:49.836Z,100.30
2018-10-18T14:15:18.537Z,90.40
2018-10-18T14:17:47.316Z,92.17
2018-10-18T14:20:15.978Z,81.40
2018-10-18T14:22:45.185Z,95.38
2018-10-18T14:25:13.893Z,108.40
2018-10-18T14:27:42.605Z,103.13
2018-10-18T14:30:12.508Z,105.17
2018-10-18T14:32:41.397Z,105.67
2018-10-18T14:35:11.500Z,110.23
2018-10-18T14:37:40.210Z,112.37
2018-10-18T14:40:10.479Z,99.67
2018-10-18T14:42:39.270Z,111.62
2018-10-18T14:45:08.792Z,114.93
2018-10-18T14:47:37.358Z,119.22
2018-10-18T14:50:07.911Z,125.03
2018-10-18T14:52:36.589Z,118.07
2018-10-18T14:55:05.682Z,125.22
2018-10-18T14:57:34.373Z,124.40
2018-10-18T15:00:03.279Z,112.28
2018-10-18T15:02:31.972Z,111.13
2018-10-18T15:05:00.813Z,121.50
2018-10-18T15:07:29.369Z,115.83
2018-10-18T15:09:58.057Z,118.33
2018-10-18T15:12:26.801Z,128.43
2018-10-18T15:14:55.473Z,113.77
2018-10-18T15:17:24.153Z,119.13
2018-10-18T15:19:52.857Z,111.90
2018-10-18T15:22:21.582Z,118.80
2018-10-18T15:24:50.279Z,119.47
2018-10-18T15:27:19.112Z,129.60
2018-10-18T15:29:47.689Z,131.97
2018-10-18T15:32:16.419Z,113.85
2018-10-18T15:34:45.096Z,118.13
2018-10-18T15:37:13.909Z,133.67
2018-10-18T15:39:42.642Z,117.47
2018-10-18T15:42:11.285Z,126.43
2018-10-18T15:44:40.001Z,120.43
2018-10-18T15:47:08.734Z,130.93
2018-10-18T15:49:37.412Z,135.57
2018-10-18T15:52:06.107Z,140.47
2018-10-18T15:54:34.831Z,130.83
2018-10-18T15:57:03.537Z,141.00
2018-10-18T15:59:32.225Z,126.53
2018-10-18T16:02:00.929Z,127.47
2018-10-18T16:04:29.640Z,121.33
2018-10-18T16:06:58.381Z,133.27
2018-10-18T16:09:27.093Z,130.10
2018-10-18T16:11:55.805Z,155.70
2018-10-18T16:14:24.513Z,144.60
2018-10-18T16:16:53.252Z,144.40
2018-10-18T16:19:21.926Z,153.47
2018-10-18T16:21:50.689Z,131.37
2018-10-18T16:24:19.439Z,147.93
2018-10-18T16:26:48.312Z,151.30
2018-10-18T16:29:17.100Z,147.13
2018-10-18T16:31:45.725Z,161.47
2018-10-18T16:34:14.441Z,152.53
2018-10-18T16:36:43.145Z,159.48
2018-10-18T16:39:13.178Z,168.17
2018-10-18T16:41:42.297Z,161.43
2018-10-18T16:44:11.038Z,154.07
2018-10-18T16:46:39.674Z,142.00
2018-10-18T16:49:08.636Z,167.90
2018-10-18T16:51:37.341Z,148.10
2018-10-18T16:54:06.251Z,156.12
2018-10-18T16:56:34.952Z,167.00
2018-10-18T16:59:03.673Z,168.13
2018-10-18T17:01:32.373Z,164.83
2018-10-18T17:04:01.139Z,175.67
2018-10-18T17:06:29.823Z,142.13
2018-10-18T17:08:58.510Z,150.60
2018-10-18T17:11:27.312Z,155.83
2018-10-18T17:13:55.938Z,159.90
2018-10-18T17:16:24.625Z,159.83
2018-10-18T17:18:53.340Z,155.65
2018-10-18T17:21:22.038Z,148.47
2018-10-18T17:23:50.757Z,151.77
2018-10-18T17:26:19.501Z,135.97
2018-10-18T17:28:48.196Z,135.67
2018-10-18T17:31:16.912Z,137.27
2018-10-18T17:33:45.612Z,143.40
2018-10-18T17:36:14.358Z,139.20
2018-10-18T17:38:43.033Z,152.10
2018-10-18T17:41:12.162Z,148.40
2018-10-18T17:43:40.862Z,138.63
2018-10-18T17:46:09.652Z,138.07
2018-10-18T17:48:38.281Z,152.13
2018-10-18T17:51:06.999Z,135.17
2018-10-18T17:53:35.717Z,148.37
2018-10-18T17:56:04.747Z,158.45
2018-10-18T17:58:33.397Z,130.70
2018-10-18T18:01:02.159Z,145.90
2018-10-18T18:03:31.113Z,153.00
2018-10-18T18:05:59.879Z,144.87
2018-10-18T18:08:28.513Z,152.13
2018-10-18T18:10:57.231Z,145.53
2018-10-18T18:13:25.933Z,128.60
2018-10-18T18:15:54.655Z,139.87
2018-10-18T18:18:23.351Z,137.27
2018-10-18T18:20:52.113Z,128.27
2018-10-18T18:23:20.809Z,151.73
2018-10-18T18:25:49.517Z,142.30
2018-10-18T18:28:18.209Z,137.20
2018-10-18T18:30:47.149Z,160.67
2018-10-18T18:33:15.844Z,160.63
2018-10-18T18:35:44.541Z,153.80
2018-10-18T18:38:13.258Z,136.33
2018-10-18T18:40:41.957Z,133.18
2018-10-18T18:43:10.657Z,160.93
2018-10-18T18:45:39.422Z,152.83
2018-10-18T18:48:08.093Z,166.63
2018-10-18T18:50:36.801Z,154.87
2018-10-18T18:53:05.769Z,151.23
2018-10-18T18:55:34.433Z,151.60
2018-10-18T18:58:03.138Z,154.23
2018-10-18T19:00:31.858Z,186.27
2018-10-18T19:03:00.561Z,164.20
2018-10-18T19:05:29.265Z,160.93
2018-10-18T19:07:57.960Z,172.43
2018-10-18T19:10:27.173Z,159.73
2018-10-18T19:12:55.873Z,137.83
2018-10-18T19:15:24.585Z,158.93
2018-10-18T19:17:53.269Z,143.00
2018-10-18T19:20:21.983Z,168.30
2018-10-18T19:22:50.847Z,179.63
2018-10-18T19:25:19.433Z,148.45
2018-10-18T19:27:48.329Z,153.68
2018-10-18T19:30:17.037Z,158.70
2018-10-18T19:32:45.729Z,132.00
2018-10-18T19:35:14.445Z,141.87
2018-10-18T19:37:43.141Z,128.47
2018-10-18T19:40:11.862Z,148.03
2018-10-18T19:42:40.561Z,134.47
2018-10-18T19:45:09.753Z,127.90
2018-10-18T19:47:38.737Z,128.07
2018-10-18T19:50:07.894Z,129.20
2018-10-18T19:52:36.798Z,119.47
2018-10-18T19:55:06.906Z,139.93
2018-10-18T19:57:35.613Z,120.93
2018-10-18T20:00:04.674Z,131.97
2018-10-18T20:02:33.385Z,99.60
2018-10-18T20:05:02.112Z,125.67
2018-10-18T20:07:30.814Z,92.47
2018-10-18T20:09:59.518Z,113.23
2018-10-18T20:12:29.090Z,109.43
2018-10-18T20:14:57.870Z,96.93
2018-10-18T20:17:26.521Z,104.27
2018-10-18T20:19:55.305Z,121.05
2018-10-18T20:22:24.270Z,98.67
2018-10-18T20:24:53.338Z,96.73
2018-10-18T20:27:21.988Z,116.57
2018-10-18T20:29:50.685Z,96.97
2018-10-18T20:32:19.444Z,109.60
2018-10-18T20:34:48.189Z,104.53
2018-10-18T20:37:17.061Z,117.37
2018-10-18T20:39:45.851Z,91.47
2018-10-18T20:42:14.474Z,101.90
2018-10-18T20:44:43.189Z,108.67
2018-10-18T20:47:12.019Z,95.73
2018-10-18T20:49:40.576Z,109.13
2018-10-18T20:52:09.454Z,117.97
2018-10-18T20:54:38.160Z,106.90
2018-10-18T20:57:06.905Z,101.67
2018-10-18T20:59:35.954Z,103.93
2018-10-18T21:02:04.877Z,92.00
2018-10-18T21:04:33.569Z,86.23
2018-10-18T21:07:02.277Z,108.70
2018-10-18T21:09:30.973Z,108.80
2018-10-18T21:11:59.680Z,97.90
2018-10-18T21:14:28.349Z,72.27
2018-10-18T21:16:57.073Z,74.77
2018-10-18T21:19:25.734Z,88.03
2018-10-18T21:21:54.494Z,75.23
2018-10-18T21:24:23.180Z,66.07
2018-10-18T21:26:51.932Z,64.40
2018-10-18T21:29:20.601Z,79.77
2018-10-18T21:31:49.301Z,55.90
2018-10-18T21:34:18.197Z,66.13
2018-10-18T21:36:46.820Z,65.67
2018-10-18T21:39:22.381Z,78.97
2018-10-18T21:41:51.076Z,82.20
2018-10-18T21:44:19.781Z,75.67
2018-10-18T21:46:48.485Z,85.93
2018-10-18T21:49:17.181Z,75.40
2018-10-18T21:51:45.885Z,70.63
2018-10-18T21:54:15.193Z,64.27
2018-10-18T21:56:43.897Z,64.03
2018-10-18T21:59:12.646Z,75.40
2018-10-18T22:01:41.342Z,64.23
2018-10-18T22:04:10.037Z,70.60
2018-10-18T22:06:38.745Z,60.10
2018-10-18T22:09:07.671Z,55.90
2018-10-18T22:11:36.807Z,57.07
2018-10-18T22:14:06.327Z,56.73
2018-10-18T22:16:35.298Z,56.43
2018-10-18T22:19:04.240Z,63.03
2018-10-18T22:21:33.178Z,56.87
2018-10-18T22:24:01.915Z,58.20
2018-10-18T22:26:30.753Z,39.00
2018-10-18T22:28:59.469Z,46.50
2018-10-18T22:31:28.194Z,45.25
2018-10-18T22:33:57.105Z,51.27
2018-10-18T22:36:26.105Z,55.30
2018-10-18T22:38:54.993Z,44.20
2018-10-18T22:41:23.889Z,56.43
2018-10-18T22:43:52.587Z,56.55
2018-10-18T22:46:21.298Z,49.80
2018-10-18T22:48:49.985Z,40.37
2018-10-18T22:51:18.718Z,34.93
2018-10-18T22:53:47.409Z,43.83
2018-10-18T22:56:16.118Z,41.37
2018-10-18T22:58:44.931Z,37.07
2018-10-18T23:01:13.624Z,39.63
2018-10-18T23:03:42.332Z,41.07
2018-10-18T23:06:11.026Z,41.43
2018-10-18T23:08:39.733Z,48.30
2018-10-18T23:11:08.499Z,51.60
2018-10-18T23:13:37.233Z,49.57
2018-10-18T23:16:05.929Z,48.80
2018-10-18T23:18:34.636Z,50.23
2018-10-18T23:21:03.385Z,57.80
2018-10-18T23:23:32.045Z,58.60
2018-10-18T23:26:00.738Z,43.30
2018-10-18T23:28:29.437Z,41.13
2018-10-18T23:30:58.133Z,46.47
2018-10-18T23:33:26.845Z,38.97
2018-10-18T23:35:55.545Z,33.60
2018-10-18T23:38:24.257Z,30.43
2018-10-18T23:40:52.977Z,31.80
2018-10-18T23:43:21.662Z,28.27
2018-10-18T23:45:53.369Z,28.87
2018-10-18T23:48:22.365Z,28.40
2018-10-18T23:50:51.449Z,29.70
2018-10-18T23:53:20.145Z,27.80
2018-10-18T23:55:48.824Z,36.30
2018-10-18T23:58:17.522Z,39.13
